createdAt,value
2023-01-18T00:01:16.352Z,50.33
2023-01-18T00:03:43.563Z,56.00
2023-01-18T00:06:11.558Z,56.03
2023-01-18T00:08:40.260Z,54.57
2023-01-18T00:11:17.214Z,58.43
2023-01-18T00:13:44.970Z,61.00
2023-01-18T00:16:15.825Z,53.20
2023-01-18T00:18:43.985Z,50.00
2023-01-18T00:21:12.367Z,54.13
2023-01-18T00:23:39.799Z,53.47
2023-01-18T00:26:10.293Z,55.43
2023-01-18T00:28:38.843Z,57.83
2023-01-18T00:31:21.079Z,50.47
2023-01-18T00:33:50.298Z,54.43
2023-01-18T00:36:18.533Z,51.50
2023-01-18T00:38:51.827Z,50.27
2023-01-18T00:41:20.196Z,50.80
2023-01-18T00:43:47.825Z,52.63
2023-01-18T00:46:25.347Z,46.57
2023-01-18T00:48:54.876Z,52.03
2023-01-18T00:51:25.264Z,47.57
2023-01-18T00:53:52.596Z,50.43
2023-01-18T00:56:22.902Z,52.47
2023-01-18T00:58:50.279Z,46.93
2023-01-18T01:01:17.772Z,44.37
2023-01-18T01:04:03.563Z,47.13
2023-01-18T01:06:45.072Z,48.07
2023-01-18T01:09:16.339Z,45.77
2023-01-18T01:12:02.724Z,52.07
2023-01-18T01:14:49.234Z,46.53
2023-01-18T01:17:35.124Z,46.23
2023-01-18T01:20:20.984Z,45.83
2023-01-18T01:23:06.957Z,43.17
2023-01-18T01:25:55.485Z,45.90
2023-01-18T01:28:22.816Z,48.87
2023-01-18T01:30:50.127Z,48.50
2023-01-18T01:33:18.505Z,44.23
2023-01-18T01:35:45.685Z,47.63
2023-01-18T01:38:12.731Z,46.23
2023-01-18T01:40:39.824Z,44.43
2023-01-18T01:43:13.423Z,42.20
2023-01-18T01:45:40.811Z,44.83
2023-01-18T01:48:09.876Z,51.40
2023-01-18T01:50:40.078Z,49.37
2023-01-18T01:53:08.868Z,56.37
2023-01-18T01:55:39.456Z,51.63
2023-01-18T01:58:20.261Z,54.80
2023-01-18T02:00:47.457Z,52.43
2023-01-18T02:03:20.088Z,59.67
2023-01-18T02:05:57.315Z,55.03
2023-01-18T02:08:25.887Z,54.47
2023-01-18T02:10:53.161Z,57.70
2023-01-18T02:13:22.935Z,53.83
2023-01-18T02:16:00.688Z,52.40
2023-01-18T02:18:59.695Z,53.23
2023-01-18T02:21:45.827Z,57.47
2023-01-18T02:24:40.384Z,51.87
2023-01-18T02:27:43.833Z,48.93
2023-01-18T02:30:36.376Z,54.23
2023-01-18T02:33:19.245Z,43.47
2023-01-18T02:35:56.551Z,51.87
2023-01-18T02:38:38.057Z,49.67
2023-01-18T02:42:06.976Z,44.87
2023-01-18T02:45:04.088Z,50.53
2023-01-18T02:47:32.607Z,40.63
2023-01-18T02:49:59.914Z,43.63
2023-01-18T02:52:47.411Z,40.47
2023-01-18T02:55:46.536Z,42.47
2023-01-18T02:58:36.228Z,40.83
2023-01-18T03:01:46.943Z,45.47
2023-01-18T03:04:22.091Z,34.07
2023-01-18T03:06:59.990Z,36.63
2023-01-18T03:09:27.797Z,37.13
2023-01-18T03:12:46.260Z,39.93
2023-01-18T03:15:29.098Z,37.43
2023-01-18T03:18:01.024Z,36.00
2023-01-18T03:20:33.252Z,36.63
2023-01-18T03:23:41.346Z,33.93
2023-01-18T03:26:16.912Z,34.80
2023-01-18T03:29:12.398Z,31.87
2023-01-18T03:32:12.442Z,35.77
2023-01-18T03:35:00.234Z,33.87
2023-01-18T03:37:33.847Z,34.70
2023-01-18T03:40:18.488Z,32.10
2023-01-18T03:43:01.746Z,41.67
2023-01-18T03:45:43.772Z,44.37
2023-01-18T03:48:11.811Z,46.27
2023-01-18T03:51:15.908Z,44.23
2023-01-18T03:54:15.364Z,41.00
2023-01-18T03:57:06.426Z,41.17
2023-01-18T03:59:37.687Z,39.53
2023-01-18T04:02:09.289Z,35.60
2023-01-18T04:04:36.538Z,33.57
2023-01-18T04:07:04.336Z,34.30
2023-01-18T04:09:31.536Z,35.17
2023-01-18T04:11:58.810Z,33.47
2023-01-18T04:14:26.061Z,33.57
2023-01-18T04:16:53.191Z,39.73
2023-01-18T04:19:20.241Z,36.53
2023-01-18T04:21:47.270Z,36.07
2023-01-18T04:24:14.645Z,37.43
2023-01-18T04:26:41.687Z,41.53
2023-01-18T04:29:09.224Z,35.77
2023-01-18T04:31:36.429Z,39.17
2023-01-18T04:34:03.628Z,40.33
2023-01-18T04:36:30.837Z,38.87
2023-01-18T04:38:58.180Z,41.90
2023-01-18T04:41:25.803Z,37.83
2023-01-18T04:43:52.908Z,46.57
2023-01-18T04:46:20.044Z,42.20
2023-01-18T04:48:51.722Z,38.63
2023-01-18T04:51:20.125Z,44.57
2023-01-18T04:53:48.033Z,37.33
2023-01-18T04:56:15.538Z,42.10
2023-01-18T04:58:43.166Z,39.83
2023-01-18T05:01:14.456Z,37.53
2023-01-18T05:03:41.830Z,39.37
2023-01-18T05:06:11.875Z,40.90
2023-01-18T05:08:41.167Z,38.40
2023-01-18T05:11:14.501Z,38.00
2023-01-18T05:13:42.299Z,40.83
2023-01-18T05:16:19.018Z,38.30
2023-01-18T05:18:46.511Z,46.50
2023-01-18T05:21:14.807Z,36.93
2023-01-18T05:23:42.212Z,41.47
2023-01-18T05:26:18.529Z,36.50
2023-01-18T05:28:45.892Z,39.70
2023-01-18T05:31:14.933Z,39.60
2023-01-18T05:33:42.474Z,36.43
2023-01-18T05:36:09.915Z,39.47
2023-01-18T05:38:36.989Z,41.50
2023-01-18T05:41:04.151Z,41.70
2023-01-18T05:43:31.781Z,41.83
2023-01-18T05:45:59.697Z,44.47
2023-01-18T05:48:27.387Z,41.43
2023-01-18T05:50:54.485Z,38.37
2023-01-18T05:53:22.977Z,39.30
2023-01-18T05:55:58.499Z,44.37
2023-01-18T05:58:27.503Z,39.27
2023-01-18T06:00:55.674Z,42.33
2023-01-18T06:03:25.262Z,41.27
2023-01-18T06:05:52.914Z,42.00
2023-01-18T06:08:20.904Z,37.00
2023-01-18T06:10:59.376Z,42.23
2023-01-18T06:13:29.618Z,32.43
2023-01-18T06:15:58.447Z,41.30
2023-01-18T06:18:28.133Z,34.70
2023-01-18T06:20:59.113Z,37.70
2023-01-18T06:23:28.266Z,38.43
2023-01-18T06:25:55.354Z,30.90
2023-01-18T06:28:22.748Z,28.70
2023-01-18T06:30:53.685Z,31.00
2023-01-18T06:33:21.455Z,26.43
2023-01-18T06:35:48.769Z,28.43
2023-01-18T06:38:15.921Z,28.43
2023-01-18T06:40:42.960Z,27.00
2023-01-18T06:43:10.440Z,28.40
2023-01-18T06:45:37.540Z,24.13
2023-01-18T06:48:04.785Z,23.77
2023-01-18T06:50:32.179Z,21.17
2023-01-18T06:52:59.708Z,23.10
2023-01-18T06:55:27.065Z,25.67
2023-01-18T06:57:55.119Z,22.30
2023-01-18T07:00:23.661Z,22.30
2023-01-18T07:02:53.037Z,21.93
2023-01-18T07:05:20.188Z,21.67
2023-01-18T07:07:47.435Z,24.60
2023-01-18T07:10:16.805Z,20.73
2023-01-18T07:12:48.599Z,21.50
2023-01-18T07:15:21.916Z,26.67
2023-01-18T07:17:50.638Z,21.13
2023-01-18T07:20:18.525Z,17.33
2023-01-18T07:22:45.752Z,20.33
2023-01-18T07:25:13.581Z,22.60
2023-01-18T07:27:44.552Z,20.30
2023-01-18T07:30:12.495Z,17.00
2023-01-18T07:32:40.747Z,16.93
2023-01-18T07:35:08.214Z,21.57
2023-01-18T07:37:36.079Z,16.57
2023-01-18T07:40:03.719Z,16.63
2023-01-18T07:42:30.731Z,16.20
2023-01-18T07:44:57.756Z,18.10
2023-01-18T07:47:24.804Z,14.83
2023-01-18T07:49:51.833Z,15.70
2023-01-18T07:52:19.864Z,17.13
2023-01-18T07:54:46.945Z,15.23
2023-01-18T07:57:13.948Z,13.70
2023-01-18T07:59:41.030Z,15.23
2023-01-18T08:02:12.703Z,14.30
2023-01-18T08:04:40.594Z,14.83
2023-01-18T08:07:09.199Z,13.73
2023-01-18T08:09:36.361Z,13.67
2023-01-18T08:12:03.685Z,14.57
2023-01-18T08:14:30.806Z,13.20
2023-01-18T08:16:57.871Z,11.93
2023-01-18T08:19:25.212Z,12.30
2023-01-18T08:21:52.253Z,14.97
2023-01-18T08:24:19.327Z,11.70
2023-01-18T08:26:46.409Z,12.57
2023-01-18T08:29:14.039Z,14.93
2023-01-18T08:31:41.072Z,14.07
2023-01-18T08:34:08.208Z,13.43
2023-01-18T08:36:35.230Z,13.20
2023-01-18T08:39:02.318Z,11.50
2023-01-18T08:41:30.545Z,13.27
2023-01-18T08:43:59.351Z,12.47
2023-01-18T08:46:26.775Z,9.33
2023-01-18T08:48:59.451Z,16.27
2023-01-18T08:51:26.591Z,11.97
2023-01-18T08:53:57.495Z,9.90
2023-01-18T08:56:25.259Z,12.30
2023-01-18T08:58:52.478Z,9.53
2023-01-18T09:01:19.777Z,9.47
2023-01-18T09:03:48.805Z,9.27
2023-01-18T09:06:16.935Z,8.47
2023-01-18T09:08:46.465Z,8.47
2023-01-18T09:11:13.512Z,9.23
2023-01-18T09:13:58.475Z,9.33
2023-01-18T09:16:26.847Z,6.70
2023-01-18T09:18:56.322Z,7.03
2023-01-18T09:21:24.275Z,6.70
2023-01-18T09:23:51.366Z,7.37
2023-01-18T09:26:20.857Z,7.33
2023-01-18T09:28:53.301Z,8.23
2023-01-18T09:31:24.192Z,6.73
2023-01-18T09:33:53.882Z,8.00
2023-01-18T09:36:26.280Z,5.80
2023-01-18T09:38:55.131Z,8.53
2023-01-18T09:41:30.758Z,8.43
2023-01-18T09:44:20.402Z,7.20
2023-01-18T09:46:54.503Z,7.20
2023-01-18T09:49:55.450Z,8.47
2023-01-18T09:53:12.488Z,7.53
2023-01-18T09:55:47.650Z,7.77
2023-01-18T09:59:06.845Z,7.30
2023-01-18T10:01:36.316Z,6.20
2023-01-18T10:04:27.027Z,5.90
2023-01-18T10:07:02.647Z,6.13
2023-01-18T10:09:54.328Z,6.87
2023-01-18T10:12:36.603Z,7.00
2023-01-18T10:15:31.964Z,7.20
2023-01-18T10:18:00.953Z,5.33
2023-01-18T10:21:02.212Z,5.20
2023-01-18T10:23:44.680Z,4.83
2023-01-18T10:26:30.732Z,6.43
2023-01-18T10:29:26.546Z,6.63
2023-01-18T10:32:08.308Z,7.23
2023-01-18T10:34:39.377Z,7.60
2023-01-18T10:37:14.880Z,5.73
2023-01-18T10:39:57.537Z,5.40
2023-01-18T10:42:49.712Z,8.67
2023-01-18T10:45:26.782Z,4.77
2023-01-18T10:47:56.386Z,5.30
2023-01-18T10:50:38.236Z,5.83
2023-01-18T10:53:23.863Z,9.97
2023-01-18T10:56:17.038Z,6.73
2023-01-18T10:58:55.839Z,5.47
2023-01-18T11:01:30.142Z,5.07
2023-01-18T11:04:24.780Z,6.17
2023-01-18T11:07:04.008Z,6.07
2023-01-18T11:09:59.404Z,3.70
2023-01-18T11:12:48.055Z,6.40
2023-01-18T11:15:15.089Z,5.37
2023-01-18T11:18:00.486Z,6.20
2023-01-18T11:20:51.682Z,5.03
2023-01-18T11:23:37.823Z,5.03
2023-01-18T11:26:24.087Z,6.80
2023-01-18T11:28:58.218Z,3.90
2023-01-18T11:31:29.690Z,6.00
2023-01-18T11:34:01.718Z,5.83
2023-01-18T11:36:46.982Z,6.87
2023-01-18T11:39:23.060Z,9.80
2023-01-18T11:41:51.244Z,5.47
2023-01-18T11:44:27.280Z,6.97
2023-01-18T11:46:59.051Z,5.43
2023-01-18T11:50:28.605Z,5.87
2023-01-18T11:53:27.496Z,5.97
2023-01-18T11:56:09.925Z,5.03
2023-01-18T11:58:37.539Z,5.37
2023-01-18T12:01:07.501Z,5.60
2023-01-18T12:04:14.311Z,5.13
2023-01-18T12:06:56.119Z,4.67
2023-01-18T12:09:52.925Z,6.53
2023-01-18T12:13:02.319Z,4.50
2023-01-18T12:16:03.822Z,4.83
2023-01-18T12:18:57.456Z,4.83
2023-01-18T12:22:12.078Z,3.90
2023-01-18T12:25:48.003Z,5.60
2023-01-18T12:28:47.214Z,5.30
2023-01-18T12:31:38.876Z,4.00
2023-01-18T12:34:23.574Z,3.87
2023-01-18T12:37:23.780Z,5.60
2023-01-18T12:40:06.526Z,3.60
2023-01-18T12:43:10.223Z,4.23
2023-01-18T12:45:52.984Z,3.70
2023-01-18T12:48:30.407Z,5.83
2023-01-18T12:51:00.496Z,5.33
2023-01-18T12:54:03.869Z,6.77
2023-01-18T12:56:40.407Z,8.30
2023-01-18T12:59:32.557Z,7.03
2023-01-18T13:02:30.020Z,5.43
2023-01-18T13:05:13.039Z,3.50
2023-01-18T13:07:45.400Z,4.30
2023-01-18T13:10:28.915Z,4.23
2023-01-18T13:12:57.828Z,5.27
2023-01-18T13:15:38.531Z,4.27
2023-01-18T13:18:29.169Z,4.80
2023-01-18T13:21:43.038Z,6.03
2023-01-18T13:24:30.975Z,3.83
2023-01-18T13:27:14.635Z,3.87
2023-01-18T13:29:43.972Z,4.43
2023-01-18T13:32:34.627Z,4.13
2023-01-18T13:35:25.991Z,6.10
2023-01-18T13:37:58.212Z,4.43
2023-01-18T13:40:34.723Z,3.83
2023-01-18T13:43:02.533Z,4.63
2023-01-18T13:45:31.150Z,4.97
2023-01-18T13:48:05.677Z,4.63
2023-01-18T13:50:34.597Z,5.17
2023-01-18T13:53:14.057Z,5.67
2023-01-18T13:56:25.831Z,4.40
2023-01-18T13:59:13.348Z,5.10
2023-01-18T14:01:44.889Z,8.10
2023-01-18T14:04:30.951Z,5.23
2023-01-18T14:07:03.097Z,6.93
2023-01-18T14:09:47.924Z,5.73
2023-01-18T14:12:15.856Z,4.30
2023-01-18T14:14:59.481Z,6.07
2023-01-18T14:17:27.377Z,4.97
2023-01-18T14:20:21.583Z,5.17
2023-01-18T14:23:29.775Z,5.30
2023-01-18T14:26:11.549Z,5.83
2023-01-18T14:28:45.654Z,8.40
2023-01-18T14:31:23.950Z,8.93
2023-01-18T14:33:51.174Z,7.80
2023-01-18T14:36:26.486Z,5.60
2023-01-18T14:39:17.103Z,10.73
2023-01-18T14:42:05.235Z,8.47
2023-01-18T14:44:58.389Z,6.37
2023-01-18T14:47:31.237Z,7.27
2023-01-18T14:49:59.114Z,9.27
2023-01-18T14:52:34.091Z,7.10
2023-01-18T14:55:01.223Z,7.60
2023-01-18T14:57:28.269Z,7.50
2023-01-18T15:00:17.135Z,7.67
2023-01-18T15:02:44.588Z,5.60
2023-01-18T15:05:19.869Z,5.77
2023-01-18T15:07:54.141Z,7.07
2023-01-18T15:10:22.699Z,7.47
2023-01-18T15:12:58.155Z,7.70
2023-01-18T15:15:42.317Z,6.67
2023-01-18T15:18:19.559Z,5.87
2023-01-18T15:21:06.304Z,6.27
2023-01-18T15:23:36.670Z,4.57
2023-01-18T15:26:04.024Z,6.37
2023-01-18T15:28:34.035Z,6.57
2023-01-18T15:31:12.364Z,10.63
2023-01-18T15:33:40.063Z,6.27
2023-01-18T15:36:09.825Z,6.37
2023-01-18T15:38:37.456Z,5.73
2023-01-18T15:41:12.578Z,6.47
2023-01-18T15:43:44.871Z,6.63
2023-01-18T15:46:16.159Z,4.37
2023-01-18T15:48:55.594Z,6.63
2023-01-18T15:51:42.895Z,5.60
2023-01-18T15:54:27.445Z,7.57
2023-01-18T15:57:09.656Z,7.70
2023-01-18T15:59:37.027Z,7.10
2023-01-18T16:02:09.972Z,6.70
2023-01-18T16:04:37.459Z,10.07
2023-01-18T16:07:35.133Z,7.50
2023-01-18T16:10:28.113Z,9.67
2023-01-18T16:13:26.257Z,6.77
2023-01-18T16:16:20.711Z,7.97
2023-01-18T16:19:02.854Z,9.43
2023-01-18T16:21:50.115Z,8.40
2023-01-18T16:24:27.509Z,9.07
2023-01-18T16:26:56.829Z,8.80
2023-01-18T16:29:24.246Z,10.00
2023-01-18T16:31:51.275Z,11.33
2023-01-18T16:34:23.929Z,11.93
2023-01-18T16:36:53.207Z,11.60
2023-01-18T16:39:21.538Z,12.67
2023-01-18T16:41:56.375Z,11.97
2023-01-18T16:44:23.421Z,13.90
2023-01-18T16:46:50.543Z,12.27
2023-01-18T16:49:17.637Z,14.43
2023-01-18T16:51:44.722Z,16.03
2023-01-18T16:54:11.814Z,18.10
2023-01-18T16:56:39.813Z,15.93
2023-01-18T16:59:21.906Z,18.57
2023-01-18T17:01:49.915Z,19.67
2023-01-18T17:04:18.478Z,18.60
2023-01-18T17:06:45.496Z,21.37
2023-01-18T17:09:26.184Z,23.07
2023-01-18T17:11:53.892Z,22.33
2023-01-18T17:14:21.811Z,21.67
2023-01-18T17:16:49.641Z,20.97
2023-01-18T17:19:20.374Z,21.00
2023-01-18T17:21:49.369Z,20.37
2023-01-18T17:24:20.522Z,24.20
2023-01-18T17:26:48.128Z,23.33
2023-01-18T17:29:18.065Z,22.77
2023-01-18T17:31:52.375Z,25.27
2023-01-18T17:34:30.014Z,21.00
2023-01-18T17:36:58.856Z,21.07
2023-01-18T17:39:42.643Z,22.33
2023-01-18T17:42:22.325Z,24.50
2023-01-18T17:44:50.748Z,24.57
2023-01-18T17:47:17.918Z,24.63
2023-01-18T17:49:44.955Z,23.83
2023-01-18T17:52:12.012Z,27.60
2023-01-18T17:54:39.019Z,24.67
2023-01-18T17:57:06.071Z,24.97
2023-01-18T17:59:33.165Z,24.20
2023-01-18T18:02:00.243Z,29.07
2023-01-18T18:04:27.273Z,23.30
2023-01-18T18:06:58.490Z,24.60
2023-01-18T18:09:25.956Z,26.87
2023-01-18T18:11:53.068Z,29.20
2023-01-18T18:14:20.228Z,24.30
2023-01-18T18:16:47.487Z,33.93
2023-01-18T18:19:14.867Z,29.03
2023-01-18T18:21:43.197Z,27.30
2023-01-18T18:24:10.226Z,26.33
2023-01-18T18:26:37.552Z,26.83
2023-01-18T18:29:05.213Z,27.63
2023-01-18T18:31:32.225Z,26.93
2023-01-18T18:33:59.279Z,27.57
2023-01-18T18:36:27.471Z,28.63
2023-01-18T18:38:54.718Z,25.47
2023-01-18T18:41:21.773Z,30.97
2023-01-18T18:43:48.801Z,28.73
2023-01-18T18:46:15.904Z,26.80
2023-01-18T18:48:43.052Z,35.07
2023-01-18T18:51:10.356Z,30.97
2023-01-18T18:53:39.342Z,28.83
2023-01-18T18:56:10.308Z,31.80
2023-01-18T18:58:39.169Z,30.90
2023-01-18T19:01:07.374Z,32.97
2023-01-18T19:03:36.058Z,35.73
2023-01-18T19:06:03.235Z,36.47
2023-01-18T19:08:31.085Z,35.23
2023-01-18T19:10:58.324Z,34.23
2023-01-18T19:13:25.424Z,36.93
2023-01-18T19:15:52.873Z,33.80
2023-01-18T19:18:20.001Z,41.80
2023-01-18T19:20:49.763Z,37.67
2023-01-18T19:23:17.237Z,37.97
2023-01-18T19:25:44.561Z,38.63
2023-01-18T19:28:11.641Z,41.67
2023-01-18T19:30:41.470Z,40.40
2023-01-18T19:33:09.383Z,44.97
2023-01-18T19:35:43.885Z,42.93
2023-01-18T19:38:11.174Z,43.43
2023-01-18T19:40:38.929Z,44.77
2023-01-18T19:43:06.296Z,40.50
2023-01-18T19:45:33.856Z,47.07
2023-01-18T19:48:01.882Z,42.00
2023-01-18T19:50:30.968Z,39.00
2023-01-18T19:52:58.797Z,41.50
2023-01-18T19:55:26.029Z,44.87
2023-01-18T19:57:57.892Z,45.87
2023-01-18T20:00:25.892Z,44.93
2023-01-18T20:02:53.650Z,43.93
2023-01-18T20:05:20.923Z,45.23
2023-01-18T20:07:48.113Z,44.87
2023-01-18T20:10:20.143Z,43.87
2023-01-18T20:12:49.444Z,41.13
2023-01-18T20:15:18.939Z,38.37
2023-01-18T20:17:46.636Z,39.87
2023-01-18T20:20:20.942Z,39.00
2023-01-18T20:22:54.550Z,36.27
2023-01-18T20:25:21.725Z,36.47
2023-01-18T20:27:48.889Z,36.87
2023-01-18T20:30:16.040Z,38.03
2023-01-18T20:32:43.217Z,36.10
2023-01-18T20:35:10.642Z,34.53
2023-01-18T20:37:37.867Z,39.80
2023-01-18T20:40:05.586Z,37.10
2023-01-18T20:42:32.596Z,34.83
2023-01-18T20:45:00.643Z,34.73
2023-01-18T20:47:28.449Z,35.37
2023-01-18T20:49:56.409Z,36.00
2023-01-18T20:52:23.503Z,32.53
2023-01-18T20:54:50.567Z,36.73
2023-01-18T20:57:18.826Z,34.90
2023-01-18T20:59:46.351Z,35.33
2023-01-18T21:02:13.687Z,35.27
2023-01-18T21:04:40.837Z,33.20
2023-01-18T21:07:08.151Z,33.80
2023-01-18T21:09:35.320Z,36.10
2023-01-18T21:12:02.474Z,33.17
2023-01-18T21:14:29.633Z,36.93
2023-01-18T21:16:56.700Z,34.40
2023-01-18T21:19:24.037Z,38.40
2023-01-18T21:21:51.158Z,40.47
2023-01-18T21:24:18.226Z,36.83
2023-01-18T21:26:45.389Z,34.57
2023-01-18T21:29:12.569Z,41.67
2023-01-18T21:31:41.031Z,38.50
2023-01-18T21:34:08.212Z,34.27
2023-01-18T21:36:35.325Z,35.37
2023-01-18T21:39:02.456Z,34.37
2023-01-18T21:41:48.319Z,33.10
2023-01-18T21:44:33.982Z,33.77
2023-01-18T21:47:01.917Z,36.77
2023-01-18T21:50:15.454Z,31.27
2023-01-18T21:52:53.556Z,31.43
2023-01-18T21:55:21.103Z,28.63
2023-01-18T21:58:10.735Z,31.20
2023-01-18T22:00:39.897Z,31.13
2023-01-18T22:03:07.328Z,29.77
2023-01-18T22:05:34.526Z,35.90
2023-01-18T22:08:02.005Z,30.30
2023-01-18T22:10:29.317Z,31.90
2023-01-18T22:12:56.454Z,31.70
2023-01-18T22:15:23.596Z,36.13
2023-01-18T22:17:50.750Z,34.97
2023-01-18T22:20:18.531Z,36.67
2023-01-18T22:22:46.684Z,34.30
2023-01-18T22:25:13.912Z,37.33
2023-01-18T22:27:41.005Z,36.20
2023-01-18T22:30:09.245Z,36.30
2023-01-18T22:32:36.304Z,37.67
2023-01-18T22:35:03.421Z,36.73
2023-01-18T22:37:31.308Z,38.73
2023-01-18T22:39:58.358Z,33.70
2023-01-18T22:42:25.963Z,37.23
2023-01-18T22:44:53.024Z,39.70
2023-01-18T22:47:20.084Z,37.50
2023-01-18T22:49:47.632Z,38.40
2023-01-18T22:52:14.777Z,36.40
2023-01-18T22:54:42.574Z,42.50
2023-01-18T22:57:09.946Z,39.17
2023-01-18T22:59:37.450Z,35.80
2023-01-18T23:02:04.954Z,36.60
2023-01-18T23:04:34.423Z,39.70
2023-01-18T23:07:01.621Z,35.90
2023-01-18T23:09:29.391Z,38.27
2023-01-18T23:11:56.726Z,36.13
2023-01-18T23:14:42.598Z,38.90
2023-01-18T23:17:30.921Z,38.10
2023-01-18T23:19:58.167Z,38.30
2023-01-18T23:22:25.332Z,37.60
2023-01-18T23:24:52.512Z,36.87
2023-01-18T23:27:19.784Z,38.47
2023-01-18T23:29:51.537Z,38.93
2023-01-18T23:32:18.682Z,36.40
2023-01-18T23:34:48.005Z,36.03
2023-01-18T23:37:15.111Z,40.87
2023-01-18T23:40:00.903Z,39.27
2023-01-18T23:42:46.439Z,41.43
2023-01-18T23:45:32.227Z,39.00
2023-01-18T23:48:25.798Z,42.30
2023-01-18T23:51:11.279Z,40.00
2023-01-18T23:53:57.244Z,36.27
2023-01-18T23:56:24.404Z,38.33
2023-01-18T23:58:51.556Z,43.30
